SWA3579 KDEN-KLAX
Flight info
| Callsign | SWA3579 |
|---|---|
| Flight time | 1h 50m |
| Altitude | 36000 |
| Route | BAYLR6 TEHRU JASSE Q90 DNERO ANJLL4 |
| Aircraft | B738/M-SDE2E3FGHIRWXY/LB1 |
Departure
| Time | 2026-04-21 02:15 |
|---|---|
| Airport | Denver International Airport (KDEN) |
Arrival
| Time | 2026-04-21 04:06 |
|---|---|
| Airport | Los Angeles International Airport (KLAX) |
| Time | Latitude | Longitude | Altitude | Speed | Heading |
|---|---|---|---|---|---|
| 2026-04-21 01:39 | 39.86357 | -104.66917 | 5384 ft | 0 kts | 180° |
| 2026-04-21 02:05 | 39.86362 | -104.66917 | 5385 ft | 2 kts | 180° |
| 2026-04-21 02:05 | 39.86381 | -104.66916 | 5381 ft | 3 kts | 180° |
| 2026-04-21 02:06 | 39.86402 | -104.66916 | 5385 ft | 3 kts | 180° |
| 2026-04-21 02:06 | 39.86419 | -104.66916 | 5383 ft | 1 kts | 180° |
| 2026-04-21 02:06 | 39.86421 | -104.66916 | 5383 ft | 1 kts | 180° |
| 2026-04-21 02:09 | 39.86419 | -104.66919 | 5382 ft | 1 kts | 213° |
| 2026-04-21 02:09 | 39.86411 | -104.66974 | 5382 ft | 13 kts | 269° |
| 2026-04-21 02:09 | 39.86413 | -104.67123 | 5385 ft | 19 kts | 271° |
| 2026-04-21 02:09 | 39.86413 | -104.67306 | 5385 ft | 22 kts | 270° |
| 2026-04-21 02:10 | 39.86414 | -104.67512 | 5385 ft | 24 kts | 270° |
| 2026-04-21 02:10 | 39.86416 | -104.67736 | 5385 ft | 26 kts | 270° |
| 2026-04-21 02:10 | 39.86419 | -104.67942 | 5385 ft | 15 kts | 271° |
| 2026-04-21 02:10 | 39.86420 | -104.68089 | 5385 ft | 19 kts | 270° |
| 2026-04-21 02:11 | 39.86426 | -104.68260 | 5374 ft | 24 kts | 272° |
| 2026-04-21 02:11 | 39.86362 | -104.68392 | 5365 ft | 18 kts | 182° |
| 2026-04-21 02:11 | 39.86237 | -104.68393 | 5366 ft | 18 kts | 180° |
| 2026-04-21 02:11 | 39.86116 | -104.68395 | 5366 ft | 17 kts | 182° |
| 2026-04-21 02:12 | 39.85976 | -104.68396 | 5364 ft | 25 kts | 180° |
| 2026-04-21 02:12 | 39.85781 | -104.68398 | 5368 ft | 30 kts | 180° |
| 2026-04-21 02:12 | 39.85577 | -104.68401 | 5371 ft | 29 kts | 180° |
| 2026-04-21 02:12 | 39.85384 | -104.68404 | 5374 ft | 25 kts | 180° |
| 2026-04-21 02:13 | 39.85271 | -104.68405 | 5374 ft | 18 kts | 180° |
| 2026-04-21 02:13 | 39.85206 | -104.68548 | 5369 ft | 27 kts | 269° |
| 2026-04-21 02:13 | 39.85201 | -104.68814 | 5359 ft | 30 kts | 269° |
| 2026-04-21 02:13 | 39.85197 | -104.69096 | 5348 ft | 30 kts | 271° |
| 2026-04-21 02:14 | 39.85202 | -104.69388 | 5339 ft | 34 kts | 270° |
| 2026-04-21 02:14 | 39.85204 | -104.69583 | 5333 ft | 10 kts | 271° |
| 2026-04-21 02:14 | 39.85246 | -104.69656 | 5336 ft | 14 kts | 344° |
| 2026-04-21 02:14 | 39.85286 | -104.69659 | 5335 ft | 10 kts | 0° |
| 2026-04-21 02:15 | 39.85605 | -104.69656 | 5342 ft | 82 kts | 0° |
| 2026-04-21 02:15 | 39.86410 | -104.69647 | 5332 ft | 146 kts | 0° |
| 2026-04-21 02:15 | 39.87584 | -104.69654 | 5474 ft | 189 kts | 359° |
| 2026-04-21 02:15 | 39.88959 | -104.69790 | 6218 ft | 202 kts | 359° |
| 2026-04-21 02:16 | 39.90429 | -104.69576 | 6483 ft | 230 kts | 11° |
| 2026-04-21 02:16 | 39.92099 | -104.69894 | 6697 ft | 264 kts | 334° |
| 2026-04-21 02:16 | 39.93431 | -104.71619 | 7092 ft | 279 kts | 295° |
| 2026-04-21 02:16 | 39.93744 | -104.74031 | 7856 ft | 270 kts | 262° |
| 2026-04-21 02:17 | 39.93027 | -104.76263 | 8416 ft | 267 kts | 235° |
| 2026-04-21 02:17 | 39.92053 | -104.78320 | 8992 ft | 268 kts | 240° |
| 2026-04-21 02:17 | 39.91146 | -104.80448 | 9522 ft | 271 kts | 242° |
| 2026-04-21 02:17 | 39.90221 | -104.82632 | 9932 ft | 282 kts | 242° |
| 2026-04-21 02:18 | 39.89241 | -104.84935 | 10172 ft | 303 kts | 242° |
| 2026-04-21 02:18 | 39.88155 | -104.87474 | 10087 ft | 336 kts | 242° |
| 2026-04-21 02:18 | 39.87402 | -104.89263 | 10389 ft | 343 kts | 243° |
| 2026-04-21 02:18 | 39.86242 | -104.91973 | 11167 ft | 343 kts | 242° |
| 2026-04-21 02:19 | 39.85058 | -104.94684 | 11865 ft | 347 kts | 241° |
| 2026-04-21 02:19 | 39.83849 | -104.97432 | 12562 ft | 351 kts | 241° |
| 2026-04-21 02:19 | 39.82631 | -105.00195 | 13394 ft | 353 kts | 242° |
| 2026-04-21 02:19 | 39.81406 | -105.02974 | 14126 ft | 355 kts | 242° |
| 2026-04-21 02:20 | 39.80175 | -105.05770 | 14817 ft | 357 kts | 242° |
| 2026-04-21 02:20 | 39.78939 | -105.08578 | 15527 ft | 359 kts | 241° |
| 2026-04-21 02:20 | 39.77698 | -105.11397 | 16243 ft | 360 kts | 241° |
| 2026-04-21 02:20 | 39.76449 | -105.14233 | 16932 ft | 362 kts | 241° |
| 2026-04-21 02:21 | 39.75190 | -105.17090 | 17618 ft | 365 kts | 241° |
| 2026-04-21 02:21 | 39.73925 | -105.19960 | 18301 ft | 367 kts | 241° |
| 2026-04-21 02:21 | 39.72662 | -105.22820 | 18891 ft | 370 kts | 241° |
| 2026-04-21 02:21 | 39.71375 | -105.25734 | 19429 ft | 374 kts | 241° |
| 2026-04-21 02:22 | 39.70071 | -105.28684 | 19975 ft | 377 kts | 241° |
| 2026-04-21 02:22 | 39.68756 | -105.31658 | 20445 ft | 383 kts | 241° |
| 2026-04-21 02:22 | 39.67422 | -105.34668 | 20974 ft | 386 kts | 241° |
| 2026-04-21 02:22 | 39.66083 | -105.37689 | 21594 ft | 387 kts | 241° |
| 2026-04-21 02:23 | 39.64733 | -105.40730 | 22158 ft | 389 kts | 242° |
| 2026-04-21 02:23 | 39.63375 | -105.43787 | 22680 ft | 392 kts | 242° |
| 2026-04-21 02:23 | 39.62007 | -105.46865 | 23216 ft | 395 kts | 242° |
| 2026-04-21 02:23 | 39.60626 | -105.49968 | 23711 ft | 398 kts | 242° |
| 2026-04-21 02:24 | 39.59236 | -105.53090 | 24161 ft | 401 kts | 242° |
| 2026-04-21 02:24 | 39.57834 | -105.56234 | 24550 ft | 404 kts | 242° |
| 2026-04-21 02:24 | 39.56418 | -105.59406 | 24941 ft | 408 kts | 242° |
| 2026-04-21 02:24 | 39.55061 | -105.62643 | 25327 ft | 410 kts | 248° |
| 2026-04-21 02:25 | 39.54044 | -105.66056 | 25715 ft | 412 kts | 252° |
| 2026-04-21 02:25 | 39.53094 | -105.69582 | 26068 ft | 416 kts | 252° |
| 2026-04-21 02:25 | 39.52146 | -105.73137 | 26449 ft | 419 kts | 252° |
| 2026-04-21 02:25 | 39.51184 | -105.76717 | 26832 ft | 421 kts | 252° |
| 2026-04-21 02:26 | 39.50203 | -105.80318 | 27210 ft | 424 kts | 252° |
| 2026-04-21 02:26 | 39.49205 | -105.83942 | 27563 ft | 427 kts | 252° |
| 2026-04-21 02:26 | 39.48197 | -105.87576 | 27909 ft | 430 kts | 252° |
| 2026-04-21 02:26 | 39.47187 | -105.91198 | 28253 ft | 433 kts | 252° |
| 2026-04-21 02:27 | 39.46159 | -105.94879 | 28610 ft | 436 kts | 252° |
| 2026-04-21 02:27 | 39.45124 | -105.98578 | 28945 ft | 439 kts | 252° |
| 2026-04-21 02:27 | 39.44079 | -106.02311 | 29204 ft | 443 kts | 252° |
| 2026-04-21 02:27 | 39.43024 | -106.06072 | 29479 ft | 446 kts | 252° |
| 2026-04-21 02:28 | 39.41960 | -106.09862 | 29799 ft | 448 kts | 252° |
| 2026-04-21 02:28 | 39.40893 | -106.13659 | 30134 ft | 450 kts | 252° |
| 2026-04-21 02:28 | 39.39819 | -106.17473 | 30405 ft | 452 kts | 252° |
| 2026-04-21 02:28 | 39.38738 | -106.21311 | 30670 ft | 455 kts | 252° |
| 2026-04-21 02:29 | 39.37655 | -106.25149 | 31009 ft | 454 kts | 252° |
| 2026-04-21 02:29 | 39.36571 | -106.28984 | 31628 ft | 453 kts | 253° |
| 2026-04-21 02:29 | 39.35493 | -106.32797 | 32021 ft | 452 kts | 253° |
| 2026-04-21 02:29 | 39.34415 | -106.36609 | 32312 ft | 452 kts | 253° |
| 2026-04-21 02:30 | 39.33344 | -106.40388 | 32567 ft | 454 kts | 253° |
| 2026-04-21 02:30 | 39.32260 | -106.44209 | 32904 ft | 453 kts | 253° |
| 2026-04-21 02:30 | 39.31178 | -106.48015 | 33264 ft | 451 kts | 253° |
| 2026-04-21 02:30 | 39.30096 | -106.51818 | 33599 ft | 451 kts | 253° |
| 2026-04-21 02:31 | 39.29015 | -106.55611 | 33870 ft | 451 kts | 253° |
| 2026-04-21 02:31 | 39.27932 | -106.59410 | 34069 ft | 451 kts | 253° |
| 2026-04-21 02:31 | 39.26847 | -106.63207 | 34352 ft | 450 kts | 253° |
| 2026-04-21 02:31 | 39.25759 | -106.67012 | 34543 ft | 453 kts | 253° |
| 2026-04-21 02:32 | 39.24621 | -106.70810 | 34783 ft | 455 kts | 248° |
| 2026-04-21 02:32 | 39.23102 | -106.74405 | 35109 ft | 457 kts | 238° |
| 2026-04-21 02:32 | 39.21234 | -106.77722 | 35408 ft | 457 kts | 236° |
| 2026-04-21 02:32 | 39.19311 | -106.80998 | 35625 ft | 459 kts | 236° |
| 2026-04-21 02:33 | 39.17370 | -106.84273 | 35834 ft | 460 kts | 236° |
| 2026-04-21 02:33 | 39.15434 | -106.87545 | 36093 ft | 459 kts | 236° |
| 2026-04-21 02:33 | 39.13503 | -106.90829 | 36047 ft | 462 kts | 236° |
| 2026-04-21 02:34 | 39.09622 | -106.97480 | 36036 ft | 465 kts | 236° |
| 2026-04-21 02:34 | 39.05795 | -107.04061 | 36028 ft | 458 kts | 236° |
| 2026-04-21 02:35 | 39.01991 | -107.10600 | 36042 ft | 456 kts | 236° |
| 2026-04-21 02:35 | 38.98182 | -107.17137 | 36031 ft | 456 kts | 236° |
| 2026-04-21 02:36 | 38.94378 | -107.23648 | 36031 ft | 455 kts | 236° |
| 2026-04-21 02:36 | 38.90571 | -107.30153 | 36041 ft | 456 kts | 236° |
| 2026-04-21 02:37 | 38.86750 | -107.36666 | 36020 ft | 457 kts | 236° |
| 2026-04-21 02:37 | 38.82929 | -107.43165 | 36026 ft | 459 kts | 236° |
| 2026-04-21 02:38 | 38.79080 | -107.49700 | 36014 ft | 460 kts | 236° |
| 2026-04-21 02:38 | 38.75208 | -107.56260 | 36007 ft | 461 kts | 236° |
| 2026-04-21 02:39 | 38.71335 | -107.62809 | 35991 ft | 462 kts | 235° |
| 2026-04-21 02:39 | 38.67445 | -107.69372 | 35994 ft | 463 kts | 235° |
| 2026-04-21 02:40 | 38.63564 | -107.75907 | 35974 ft | 463 kts | 235° |
| 2026-04-21 02:40 | 38.59669 | -107.82453 | 36121 ft | 462 kts | 235° |
| 2026-04-21 02:41 | 38.55771 | -107.88990 | 36126 ft | 462 kts | 235° |
| 2026-04-21 02:41 | 38.51874 | -107.95512 | 36131 ft | 461 kts | 235° |
| 2026-04-21 02:42 | 38.47975 | -108.02025 | 36119 ft | 461 kts | 235° |
| 2026-04-21 02:42 | 38.44081 | -108.08517 | 36094 ft | 461 kts | 235° |
| 2026-04-21 02:43 | 38.40186 | -108.14998 | 36061 ft | 460 kts | 235° |
| 2026-04-21 02:43 | 38.36287 | -108.21471 | 36034 ft | 460 kts | 234° |
| 2026-04-21 02:44 | 38.32393 | -108.27925 | 36007 ft | 460 kts | 234° |
| 2026-04-21 02:44 | 38.28491 | -108.34379 | 36020 ft | 459 kts | 234° |
| 2026-04-21 02:45 | 38.24592 | -108.40814 | 36025 ft | 459 kts | 234° |
| 2026-04-21 02:45 | 38.20714 | -108.47203 | 36005 ft | 459 kts | 234° |
| 2026-04-21 02:46 | 38.16806 | -108.53628 | 36021 ft | 460 kts | 234° |
| 2026-04-21 02:46 | 38.12887 | -108.60058 | 36000 ft | 460 kts | 234° |
| 2026-04-21 02:47 | 38.08958 | -108.66492 | 36003 ft | 460 kts | 234° |
| 2026-04-21 02:47 | 38.05063 | -108.72859 | 35995 ft | 460 kts | 234° |
| 2026-04-21 02:48 | 38.01108 | -108.79310 | 35993 ft | 460 kts | 234° |
| 2026-04-21 02:48 | 37.97199 | -108.85675 | 35998 ft | 460 kts | 234° |
| 2026-04-21 02:49 | 37.93258 | -108.92077 | 36016 ft | 461 kts | 234° |
| 2026-04-21 02:49 | 37.89312 | -108.98478 | 36001 ft | 461 kts | 234° |
| 2026-04-21 02:50 | 37.85366 | -109.04862 | 36016 ft | 460 kts | 234° |
| 2026-04-21 02:50 | 37.81414 | -109.11246 | 36018 ft | 460 kts | 234° |
| 2026-04-21 02:51 | 37.77470 | -109.17607 | 36027 ft | 460 kts | 233° |
| 2026-04-21 02:51 | 37.73521 | -109.23969 | 36042 ft | 460 kts | 233° |
| 2026-04-21 02:52 | 37.69571 | -109.30307 | 36084 ft | 459 kts | 233° |
| 2026-04-21 02:52 | 37.65616 | -109.36645 | 36119 ft | 459 kts | 233° |
| 2026-04-21 02:53 | 37.61693 | -109.42922 | 36130 ft | 458 kts | 233° |
| 2026-04-21 02:53 | 37.57746 | -109.49247 | 36129 ft | 458 kts | 233° |
| 2026-04-21 02:54 | 37.53792 | -109.55530 | 36128 ft | 457 kts | 233° |
| 2026-04-21 02:54 | 37.49839 | -109.61812 | 36098 ft | 457 kts | 233° |
| 2026-04-21 02:55 | 37.45884 | -109.68093 | 36063 ft | 456 kts | 233° |
| 2026-04-21 02:55 | 37.43911 | -109.71222 | 35954 ft | 456 kts | 233° |
| 2026-04-21 02:55 | 37.41963 | -109.74309 | 35954 ft | 456 kts | 233° |
| 2026-04-21 02:56 | 37.38016 | -109.80553 | 35953 ft | 456 kts | 233° |
| 2026-04-21 02:56 | 37.32088 | -109.89907 | 35956 ft | 456 kts | 233° |
| 2026-04-21 02:57 | 37.28139 | -109.96125 | 35941 ft | 455 kts | 233° |
| 2026-04-21 02:57 | 37.24206 | -110.02305 | 35943 ft | 455 kts | 232° |
| 2026-04-21 02:58 | 37.20249 | -110.08512 | 35937 ft | 455 kts | 232° |
| 2026-04-21 02:58 | 37.16288 | -110.14713 | 35930 ft | 455 kts | 232° |
| 2026-04-21 02:59 | 37.12335 | -110.20889 | 35929 ft | 454 kts | 232° |
| 2026-04-21 02:59 | 37.08383 | -110.27054 | 35937 ft | 453 kts | 232° |
| 2026-04-21 03:00 | 37.04531 | -110.33052 | 35879 ft | 453 kts | 232° |
| 2026-04-21 03:00 | 37.00701 | -110.39005 | 36437 ft | 447 kts | 231° |
| 2026-04-21 03:01 | 36.98762 | -110.42010 | 36023 ft | 450 kts | 234° |
| 2026-04-21 03:01 | 36.96793 | -110.45064 | 36042 ft | 453 kts | 234° |
| 2026-04-21 03:01 | 36.92794 | -110.51264 | 36016 ft | 461 kts | 234° |
| 2026-04-21 03:02 | 36.88738 | -110.57536 | 36029 ft | 467 kts | 234° |
| 2026-04-21 03:02 | 36.84638 | -110.63859 | 36004 ft | 465 kts | 234° |
| 2026-04-21 03:03 | 36.80588 | -110.70088 | 35994 ft | 458 kts | 234° |
| 2026-04-21 03:03 | 36.76596 | -110.76223 | 35990 ft | 457 kts | 234° |
| 2026-04-21 03:04 | 36.72592 | -110.82368 | 35975 ft | 456 kts | 234° |
| 2026-04-21 03:04 | 36.68586 | -110.88504 | 35988 ft | 456 kts | 234° |
| 2026-04-21 03:05 | 36.65254 | -110.93599 | 35985 ft | 457 kts | 234° |
| 2026-04-21 03:05 | 36.61229 | -110.99743 | 35989 ft | 458 kts | 234° |
| 2026-04-21 03:06 | 36.56529 | -111.06903 | 35989 ft | 460 kts | 234° |
| 2026-04-21 03:06 | 36.53155 | -111.12033 | 35992 ft | 461 kts | 234° |
| 2026-04-21 03:07 | 36.49086 | -111.18208 | 36000 ft | 461 kts | 234° |
| 2026-04-21 03:07 | 36.45019 | -111.24370 | 35995 ft | 461 kts | 233° |
| 2026-04-21 03:08 | 36.40948 | -111.30528 | 35995 ft | 461 kts | 233° |
| 2026-04-21 03:08 | 36.36883 | -111.36664 | 36001 ft | 460 kts | 233° |
| 2026-04-21 03:09 | 36.32818 | -111.42790 | 35993 ft | 459 kts | 233° |
| 2026-04-21 03:09 | 36.28761 | -111.48893 | 35991 ft | 458 kts | 233° |
| 2026-04-21 03:10 | 36.24709 | -111.54978 | 36000 ft | 456 kts | 233° |
| 2026-04-21 03:10 | 36.20691 | -111.61000 | 36002 ft | 455 kts | 233° |
| 2026-04-21 03:11 | 36.16657 | -111.67036 | 36011 ft | 454 kts | 233° |
| 2026-04-21 03:11 | 36.12623 | -111.73064 | 35996 ft | 454 kts | 233° |
| 2026-04-21 03:12 | 36.08595 | -111.79088 | 36037 ft | 454 kts | 235° |
| 2026-04-21 03:12 | 36.05530 | -111.85806 | 36101 ft | 450 kts | 251° |
| 2026-04-21 03:13 | 36.03260 | -111.93089 | 36135 ft | 458 kts | 251° |
| 2026-04-21 03:13 | 36.00970 | -112.00434 | 36165 ft | 458 kts | 251° |
| 2026-04-21 03:14 | 35.98640 | -112.07764 | 36178 ft | 458 kts | 251° |
| 2026-04-21 03:14 | 35.96291 | -112.15078 | 36196 ft | 457 kts | 250° |
| 2026-04-21 03:15 | 35.93943 | -112.22358 | 36192 ft | 455 kts | 250° |
| 2026-04-21 03:15 | 35.91601 | -112.29607 | 36172 ft | 454 kts | 250° |
| 2026-04-21 03:16 | 35.89264 | -112.36825 | 36134 ft | 452 kts | 250° |
| 2026-04-21 03:16 | 35.86945 | -112.43973 | 36095 ft | 450 kts | 250° |
| 2026-04-21 03:17 | 35.84619 | -112.51123 | 36023 ft | 449 kts | 250° |
| 2026-04-21 03:17 | 35.82293 | -112.58260 | 36017 ft | 448 kts | 250° |
| 2026-04-21 03:18 | 35.79969 | -112.65371 | 36024 ft | 447 kts | 250° |
| 2026-04-21 03:18 | 35.77644 | -112.72468 | 36010 ft | 446 kts | 250° |
| 2026-04-21 03:19 | 35.75317 | -112.79554 | 36012 ft | 446 kts | 250° |
| 2026-04-21 03:19 | 35.72986 | -112.86635 | 36008 ft | 446 kts | 249° |
| 2026-04-21 03:20 | 35.70661 | -112.93678 | 36006 ft | 446 kts | 249° |
| 2026-04-21 03:20 | 35.68327 | -113.00742 | 36000 ft | 446 kts | 249° |
| 2026-04-21 03:21 | 35.65986 | -113.07812 | 35988 ft | 446 kts | 250° |
| 2026-04-21 03:21 | 35.63638 | -113.14874 | 35988 ft | 445 kts | 248° |
| 2026-04-21 03:22 | 35.61289 | -113.21935 | 35984 ft | 445 kts | 249° |
| 2026-04-21 03:22 | 35.58933 | -113.28977 | 35968 ft | 445 kts | 248° |
| 2026-04-21 03:23 | 35.56588 | -113.35960 | 35970 ft | 444 kts | 249° |
| 2026-04-21 03:23 | 35.54228 | -113.42974 | 35959 ft | 444 kts | 249° |
| 2026-04-21 03:24 | 35.51872 | -113.49972 | 35941 ft | 443 kts | 249° |
| 2026-04-21 03:24 | 35.49519 | -113.56944 | 35942 ft | 441 kts | 248° |
| 2026-04-21 03:25 | 35.47171 | -113.63883 | 35938 ft | 440 kts | 249° |
| 2026-04-21 03:25 | 35.44821 | -113.70817 | 35960 ft | 439 kts | 248° |
| 2026-04-21 03:26 | 35.42475 | -113.77722 | 35977 ft | 438 kts | 248° |
| 2026-04-21 03:26 | 35.40138 | -113.84580 | 36008 ft | 438 kts | 248° |
| 2026-04-21 03:27 | 35.37787 | -113.91465 | 36022 ft | 438 kts | 248° |
| 2026-04-21 03:27 | 35.35429 | -113.98356 | 36033 ft | 438 kts | 248° |
| 2026-04-21 03:28 | 35.33066 | -114.05245 | 36025 ft | 439 kts | 248° |
| 2026-04-21 03:28 | 35.30702 | -114.12123 | 36011 ft | 437 kts | 248° |
| 2026-04-21 03:29 | 35.28348 | -114.18956 | 35984 ft | 432 kts | 248° |
| 2026-04-21 03:29 | 35.26015 | -114.25713 | 35957 ft | 429 kts | 248° |
| 2026-04-21 03:30 | 35.23686 | -114.32446 | 35933 ft | 432 kts | 247° |
| 2026-04-21 03:30 | 35.21325 | -114.39258 | 35918 ft | 438 kts | 246° |
| 2026-04-21 03:31 | 35.18942 | -114.46112 | 35908 ft | 437 kts | 246° |
| 2026-04-21 03:31 | 35.16588 | -114.52877 | 35897 ft | 434 kts | 246° |
| 2026-04-21 03:32 | 35.14233 | -114.59628 | 35866 ft | 429 kts | 246° |
| 2026-04-21 03:32 | 35.11886 | -114.66361 | 35883 ft | 433 kts | 246° |
| 2026-04-21 03:33 | 35.09531 | -114.73159 | 35893 ft | 434 kts | 246° |
| 2026-04-21 03:33 | 35.07158 | -114.79996 | 35909 ft | 440 kts | 246° |
| 2026-04-21 03:34 | 35.04765 | -114.86872 | 35898 ft | 444 kts | 246° |
| 2026-04-21 03:34 | 35.02225 | -114.93766 | 35915 ft | 447 kts | 243° |
| 2026-04-21 03:35 | 34.99291 | -115.00472 | 35912 ft | 448 kts | 241° |
| 2026-04-21 03:35 | 34.96354 | -115.07062 | 35910 ft | 432 kts | 240° |
| 2026-04-21 03:36 | 34.93569 | -115.13417 | 35920 ft | 425 kts | 240° |
| 2026-04-21 03:36 | 34.90797 | -115.19785 | 35929 ft | 425 kts | 240° |
| 2026-04-21 03:37 | 34.88042 | -115.26114 | 35927 ft | 422 kts | 240° |
| 2026-04-21 03:37 | 34.85253 | -115.32503 | 35927 ft | 432 kts | 240° |
| 2026-04-21 03:38 | 34.82433 | -115.38954 | 35915 ft | 434 kts | 240° |
| 2026-04-21 03:38 | 34.79592 | -115.45440 | 35905 ft | 434 kts | 240° |
| 2026-04-21 03:39 | 34.77041 | -115.51966 | 35887 ft | 418 kts | 244° |
| 2026-04-21 03:39 | 34.74752 | -115.58369 | 35880 ft | 404 kts | 244° |
| 2026-04-21 03:40 | 34.72524 | -115.64522 | 35857 ft | 394 kts | 244° |
| 2026-04-21 03:40 | 34.70304 | -115.70551 | 35843 ft | 391 kts | 244° |
| 2026-04-21 03:41 | 34.68087 | -115.76548 | 35678 ft | 383 kts | 244° |
| 2026-04-21 03:41 | 34.67009 | -115.79459 | 35510 ft | 374 kts | 244° |
| 2026-04-21 03:41 | 34.65945 | -115.82332 | 35143 ft | 371 kts | 244° |
| 2026-04-21 03:42 | 34.64885 | -115.85187 | 34815 ft | 368 kts | 244° |
| 2026-04-21 03:42 | 34.63838 | -115.88007 | 34459 ft | 366 kts | 244° |
| 2026-04-21 03:42 | 34.62781 | -115.90854 | 34138 ft | 377 kts | 244° |
| 2026-04-21 03:42 | 34.61684 | -115.93820 | 33745 ft | 391 kts | 244° |
| 2026-04-21 03:43 | 34.60587 | -115.96797 | 33314 ft | 389 kts | 244° |
| 2026-04-21 03:43 | 34.59491 | -115.99775 | 32914 ft | 386 kts | 244° |
| 2026-04-21 03:43 | 34.58399 | -116.02740 | 32530 ft | 383 kts | 244° |
| 2026-04-21 03:43 | 34.57314 | -116.05679 | 32149 ft | 380 kts | 244° |
| 2026-04-21 03:44 | 34.56236 | -116.08598 | 31776 ft | 377 kts | 244° |
| 2026-04-21 03:44 | 34.55168 | -116.11486 | 31404 ft | 375 kts | 243° |
| 2026-04-21 03:44 | 34.54103 | -116.14360 | 31062 ft | 373 kts | 243° |
| 2026-04-21 03:44 | 34.53042 | -116.17224 | 30686 ft | 371 kts | 243° |
| 2026-04-21 03:45 | 34.51986 | -116.20070 | 30327 ft | 369 kts | 243° |
| 2026-04-21 03:45 | 34.50945 | -116.22873 | 29970 ft | 367 kts | 243° |
| 2026-04-21 03:45 | 34.49877 | -116.25743 | 29555 ft | 374 kts | 243° |
| 2026-04-21 03:45 | 34.48775 | -116.28696 | 29197 ft | 394 kts | 243° |
| 2026-04-21 03:46 | 34.47615 | -116.31805 | 28765 ft | 415 kts | 243° |
| 2026-04-21 03:46 | 34.46397 | -116.35069 | 28316 ft | 434 kts | 243° |
| 2026-04-21 03:46 | 34.45128 | -116.38473 | 27855 ft | 449 kts | 243° |
| 2026-04-21 03:46 | 34.43845 | -116.41922 | 27371 ft | 447 kts | 243° |
| 2026-04-21 03:47 | 34.42573 | -116.45332 | 26919 ft | 444 kts | 243° |
| 2026-04-21 03:47 | 34.41316 | -116.48683 | 26463 ft | 441 kts | 243° |
| 2026-04-21 03:47 | 34.39982 | -116.52015 | 26041 ft | 438 kts | 242° |
| 2026-04-21 03:47 | 34.38600 | -116.55330 | 25604 ft | 435 kts | 241° |
| 2026-04-21 03:48 | 34.37242 | -116.58549 | 25174 ft | 432 kts | 240° |
| 2026-04-21 03:48 | 34.35889 | -116.61785 | 24734 ft | 428 kts | 241° |
| 2026-04-21 03:48 | 34.34561 | -116.64992 | 24325 ft | 426 kts | 241° |
| 2026-04-21 03:48 | 34.33241 | -116.68194 | 23866 ft | 425 kts | 241° |
| 2026-04-21 03:49 | 34.31944 | -116.71394 | 23405 ft | 423 kts | 241° |
| 2026-04-21 03:49 | 34.30658 | -116.74600 | 22889 ft | 420 kts | 241° |
| 2026-04-21 03:49 | 34.29392 | -116.77765 | 22447 ft | 417 kts | 242° |
| 2026-04-21 03:49 | 34.28131 | -116.80909 | 21993 ft | 414 kts | 241° |
| 2026-04-21 03:50 | 34.26872 | -116.84039 | 21563 ft | 412 kts | 241° |
| 2026-04-21 03:50 | 34.25619 | -116.87147 | 21146 ft | 409 kts | 241° |
| 2026-04-21 03:50 | 34.24376 | -116.90227 | 20709 ft | 407 kts | 241° |
| 2026-04-21 03:50 | 34.23150 | -116.93262 | 20295 ft | 406 kts | 241° |
| 2026-04-21 03:51 | 34.21914 | -116.96314 | 19869 ft | 404 kts | 241° |
| 2026-04-21 03:51 | 34.20725 | -116.99384 | 19464 ft | 404 kts | 245° |
| 2026-04-21 03:51 | 34.19795 | -117.02586 | 19037 ft | 403 kts | 249° |
| 2026-04-21 03:51 | 34.18993 | -117.05826 | 18620 ft | 403 kts | 250° |
| 2026-04-21 03:52 | 34.18184 | -117.09063 | 18183 ft | 402 kts | 249° |
| 2026-04-21 03:52 | 34.17340 | -117.12277 | 17710 ft | 400 kts | 249° |
| 2026-04-21 03:52 | 34.16770 | -117.14391 | 17419 ft | 398 kts | 249° |
| 2026-04-21 03:52 | 34.15898 | -117.17581 | 16973 ft | 392 kts | 248° |
| 2026-04-21 03:53 | 34.15053 | -117.20646 | 16599 ft | 386 kts | 248° |
| 2026-04-21 03:53 | 34.14209 | -117.23698 | 16175 ft | 382 kts | 248° |
| 2026-04-21 03:53 | 34.13368 | -117.26740 | 15771 ft | 381 kts | 249° |
| 2026-04-21 03:53 | 34.12532 | -117.29771 | 15372 ft | 379 kts | 249° |
| 2026-04-21 03:54 | 34.11701 | -117.32783 | 14971 ft | 377 kts | 249° |
| 2026-04-21 03:54 | 34.10871 | -117.35785 | 14578 ft | 376 kts | 249° |
| 2026-04-21 03:54 | 34.10066 | -117.38776 | 14184 ft | 375 kts | 250° |
| 2026-04-21 03:54 | 34.09310 | -117.41805 | 13760 ft | 374 kts | 251° |
| 2026-04-21 03:55 | 34.08574 | -117.44804 | 13322 ft | 372 kts | 251° |
| 2026-04-21 03:55 | 34.07843 | -117.47750 | 12933 ft | 370 kts | 251° |
| 2026-04-21 03:55 | 34.07094 | -117.50742 | 12521 ft | 367 kts | 250° |
| 2026-04-21 03:55 | 34.06358 | -117.53636 | 12135 ft | 364 kts | 250° |
| 2026-04-21 03:56 | 34.05615 | -117.56539 | 11743 ft | 359 kts | 250° |
| 2026-04-21 03:56 | 34.04885 | -117.59386 | 11369 ft | 352 kts | 250° |
| 2026-04-21 03:56 | 34.04170 | -117.62181 | 11006 ft | 345 kts | 250° |
| 2026-04-21 03:56 | 34.03475 | -117.64898 | 10626 ft | 331 kts | 250° |
| 2026-04-21 03:57 | 34.02811 | -117.67490 | 10291 ft | 317 kts | 249° |
| 2026-04-21 03:57 | 34.02186 | -117.69981 | 9967 ft | 305 kts | 252° |
| 2026-04-21 03:57 | 34.01850 | -117.72412 | 9925 ft | 287 kts | 259° |
| 2026-04-21 03:57 | 34.01659 | -117.74739 | 9652 ft | 278 kts | 260° |
| 2026-04-21 03:58 | 34.01458 | -117.77124 | 9068 ft | 281 kts | 261° |
| 2026-04-21 03:58 | 34.01259 | -117.79427 | 8671 ft | 276 kts | 260° |
| 2026-04-21 03:58 | 34.01048 | -117.81698 | 8342 ft | 270 kts | 260° |
| 2026-04-21 03:58 | 34.00832 | -117.83943 | 8042 ft | 270 kts | 260° |
| 2026-04-21 03:59 | 34.00611 | -117.86210 | 7732 ft | 274 kts | 260° |
| 2026-04-21 03:59 | 34.00385 | -117.88513 | 7419 ft | 278 kts | 261° |
| 2026-04-21 03:59 | 34.00156 | -117.90839 | 7075 ft | 279 kts | 261° |
| 2026-04-21 04:00 | 33.99702 | -117.95481 | 6460 ft | 278 kts | 261° |
| 2026-04-21 04:00 | 33.99475 | -117.97793 | 6156 ft | 277 kts | 261° |
| 2026-04-21 04:00 | 33.99250 | -118.00070 | 5812 ft | 278 kts | 261° |
| 2026-04-21 04:00 | 33.99020 | -118.02390 | 5457 ft | 278 kts | 262° |
| 2026-04-21 04:01 | 33.98787 | -118.04711 | 5103 ft | 280 kts | 262° |
| 2026-04-21 04:01 | 33.98555 | -118.07043 | 4739 ft | 281 kts | 262° |
| 2026-04-21 04:01 | 33.98322 | -118.09385 | 4355 ft | 281 kts | 262° |
| 2026-04-21 04:01 | 33.98091 | -118.11696 | 3981 ft | 274 kts | 262° |
| 2026-04-21 04:02 | 33.97868 | -118.13926 | 3739 ft | 262 kts | 262° |
| 2026-04-21 04:02 | 33.97654 | -118.16068 | 3494 ft | 253 kts | 262° |
| 2026-04-21 04:02 | 33.97447 | -118.18131 | 3261 ft | 244 kts | 262° |
| 2026-04-21 04:02 | 33.97247 | -118.20120 | 3031 ft | 235 kts | 262° |
| 2026-04-21 04:03 | 33.97051 | -118.22043 | 2809 ft | 227 kts | 262° |
| 2026-04-21 04:03 | 33.96865 | -118.23903 | 2601 ft | 219 kts | 263° |
| 2026-04-21 04:03 | 33.96696 | -118.25697 | 2413 ft | 212 kts | 263° |
| 2026-04-21 04:03 | 33.96520 | -118.27445 | 2216 ft | 210 kts | 262° |
| 2026-04-21 04:04 | 33.96339 | -118.29195 | 1943 ft | 209 kts | 262° |
| 2026-04-21 04:04 | 33.96163 | -118.30897 | 1671 ft | 206 kts | 262° |
| 2026-04-21 04:04 | 33.95990 | -118.32573 | 1405 ft | 198 kts | 262° |
| 2026-04-21 04:04 | 33.95823 | -118.34203 | 1148 ft | 195 kts | 262° |
| 2026-04-21 04:05 | 33.95659 | -118.35799 | 883 ft | 186 kts | 263° |
| 2026-04-21 04:05 | 33.95507 | -118.37286 | 619 ft | 172 kts | 262° |
| 2026-04-21 04:05 | 33.95363 | -118.38653 | 413 ft | 158 kts | 262° |
| 2026-04-21 04:05 | 33.95241 | -118.39921 | 192 ft | 146 kts | 263° |
| 2026-04-21 04:06 | 33.95123 | -118.41044 | 125 ft | 120 kts | 263° |
| 2026-04-21 04:06 | 33.95035 | -118.41906 | 123 ft | 72 kts | 263° |
| 2026-04-21 04:06 | 33.95003 | -118.42212 | 124 ft | 31 kts | 263° |
| 2026-04-21 04:06 | 33.94965 | -118.42462 | 123 ft | 29 kts | 250° |
| 2026-04-21 04:07 | 33.94893 | -118.42622 | 124 ft | 0 kts | 231° |
| 2026-04-21 04:07 | 33.94888 | -118.42629 | 121 ft | 6 kts | 232° |
| 2026-04-21 04:08 | 33.94838 | -118.42696 | 123 ft | 16 kts | 223° |
| 2026-04-21 04:08 | 33.94736 | -118.42767 | 122 ft | 18 kts | 196° |
| 2026-04-21 04:08 | 33.94648 | -118.42763 | 124 ft | 13 kts | 140° |
| 2026-04-21 04:08 | 33.94639 | -118.42695 | 125 ft | 5 kts | 96° |
| 2026-04-21 04:09 | 33.94640 | -118.42668 | 122 ft | 0 kts | 83° |
| 2026-04-21 04:10 | 33.94640 | -118.42662 | 125 ft | 6 kts | 83° |
| 2026-04-21 04:10 | 33.94649 | -118.42563 | 125 ft | 16 kts | 83° |
| 2026-04-21 04:10 | 33.94666 | -118.42413 | 123 ft | 20 kts | 84° |
| 2026-04-21 04:11 | 33.94683 | -118.42245 | 125 ft | 20 kts | 83° |
| 2026-04-21 04:11 | 33.94700 | -118.42081 | 125 ft | 19 kts | 82° |
| 2026-04-21 04:11 | 33.94715 | -118.41922 | 125 ft | 19 kts | 83° |
| 2026-04-21 04:11 | 33.94732 | -118.41767 | 122 ft | 18 kts | 83° |
| 2026-04-21 04:12 | 33.94746 | -118.41619 | 125 ft | 18 kts | 82° |
| 2026-04-21 04:12 | 33.94762 | -118.41475 | 120 ft | 17 kts | 83° |
| 2026-04-21 04:12 | 33.94789 | -118.41340 | 123 ft | 16 kts | 81° |
| 2026-04-21 04:12 | 33.94802 | -118.41206 | 125 ft | 16 kts | 83° |
| 2026-04-21 04:13 | 33.94816 | -118.41078 | 125 ft | 15 kts | 83° |
| 2026-04-21 04:13 | 33.94828 | -118.40951 | 123 ft | 16 kts | 90° |
| 2026-04-21 04:13 | 33.94758 | -118.40882 | 121 ft | 11 kts | 182° |
| 2026-04-21 04:13 | 33.94706 | -118.40848 | 124 ft | 2 kts | 136° |
| 2026-04-21 04:14 | 33.94704 | -118.40846 | 121 ft | 0 kts | 136° |